sensor_id;sensor_type;location;lat;lon;timestamp;P1;durP1;ratioP1;P2;durP2;ratioP2
31906;SDS011;18455;50.858;13.662;2023-08-07T00:00:56;2.28;;;2.08;;
31906;SDS011;18455;50.858;13.662;2023-08-07T00:05:57;2.53;;;1.73;;
31906;SDS011;18455;50.858;13.662;2023-08-07T00:11:07;3.65;;;2.15;;
31906;SDS011;18455;50.858;13.662;2023-08-07T00:16:10;3.15;;;2.08;;
31906;SDS011;18455;50.858;13.662;2023-08-07T00:21:11;2.20;;;2.00;;
31906;SDS011;18455;50.858;13.662;2023-08-07T00:26:12;3.75;;;2.65;;
31906;SDS011;18455;50.858;13.662;2023-08-07T00:31:12;2.83;;;2.22;;
31906;SDS011;18455;50.858;13.662;2023-08-07T00:36:14;2.60;;;2.40;;
31906;SDS011;18455;50.858;13.662;2023-08-07T00:41:16;4.50;;;2.63;;
31906;SDS011;18455;50.858;13.662;2023-08-07T00:46:17;4.25;;;3.00;;
31906;SDS011;18455;50.858;13.662;2023-08-07T00:51:18;4.55;;;2.80;;
31906;SDS011;18455;50.858;13.662;2023-08-07T00:56:18;2.30;;;2.10;;
31906;SDS011;18455;50.858;13.662;2023-08-07T01:01:19;3.78;;;2.65;;
31906;SDS011;18455;50.858;13.662;2023-08-07T01:06:20;3.60;;;2.55;;
31906;SDS011;18455;50.858;13.662;2023-08-07T01:16:41;2.45;;;2.25;;
31906;SDS011;18455;50.858;13.662;2023-08-07T01:21:44;2.45;;;2.25;;
31906;SDS011;18455;50.858;13.662;2023-08-07T01:26:46;2.20;;;1.77;;
31906;SDS011;18455;50.858;13.662;2023-08-07T01:31:46;3.45;;;1.92;;
31906;SDS011;18455;50.858;13.662;2023-08-07T01:36:49;2.58;;;2.10;;
31906;SDS011;18455;50.858;13.662;2023-08-07T01:41:50;3.95;;;2.08;;
31906;SDS011;18455;50.858;13.662;2023-08-07T01:46:50;3.38;;;2.78;;
31906;SDS011;18455;50.858;13.662;2023-08-07T01:51:51;4.00;;;2.70;;
31906;SDS011;18455;50.858;13.662;2023-08-07T01:56:51;3.20;;;2.90;;
31906;SDS011;18455;50.858;13.662;2023-08-07T02:01:51;4.13;;;2.58;;
31906;SDS011;18455;50.858;13.662;2023-08-07T02:06:52;3.13;;;2.78;;
31906;SDS011;18455;50.858;13.662;2023-08-07T02:11:54;7.65;;;4.10;;
31906;SDS011;18455;50.858;13.662;2023-08-07T02:16:55;4.20;;;3.80;;
31906;SDS011;18455;50.858;13.662;2023-08-07T02:21:55;5.47;;;4.97;;
31906;SDS011;18455;50.858;13.662;2023-08-07T02:26:55;9.20;;;7.35;;
31906;SDS011;18455;50.858;13.662;2023-08-07T02:31:56;9.25;;;7.63;;
31906;SDS011;18455;50.858;13.662;2023-08-07T02:36:56;13.07;;;11.32;;
31906;SDS011;18455;50.858;13.662;2023-08-07T02:41:56;8.65;;;7.75;;
31906;SDS011;18455;50.858;13.662;2023-08-07T02:46:57;7.32;;;6.57;;
31906;SDS011;18455;50.858;13.662;2023-08-07T02:51:57;6.95;;;5.95;;
31906;SDS011;18455;50.858;13.662;2023-08-07T02:56:58;7.18;;;6.25;;
31906;SDS011;18455;50.858;13.662;2023-08-07T03:01:58;7.68;;;6.78;;
31906;SDS011;18455;50.858;13.662;2023-08-07T03:06:59;9.35;;;6.22;;
31906;SDS011;18455;50.858;13.662;2023-08-07T03:12:00;8.40;;;5.75;;
31906;SDS011;18455;50.858;13.662;2023-08-07T03:17:03;4.50;;;3.80;;
31906;SDS011;18455;50.858;13.662;2023-08-07T03:22:04;4.50;;;2.90;;
31906;SDS011;18455;50.858;13.662;2023-08-07T03:27:04;2.92;;;2.72;;
31906;SDS011;18455;50.858;13.662;2023-08-07T03:32:06;6.32;;;3.35;;
31906;SDS011;18455;50.858;13.662;2023-08-07T03:37:08;7.63;;;4.00;;
31906;SDS011;18455;50.858;13.662;2023-08-07T03:42:08;5.97;;;4.75;;
31906;SDS011;18455;50.858;13.662;2023-08-07T03:47:09;7.43;;;6.43;;
31906;SDS011;18455;50.858;13.662;2023-08-07T03:52:10;10.27;;;9.13;;
31906;SDS011;18455;50.858;13.662;2023-08-07T03:57:10;13.60;;;9.82;;
31906;SDS011;18455;50.858;13.662;2023-08-07T04:02:12;11.07;;;9.57;;
31906;SDS011;18455;50.858;13.662;2023-08-07T04:07:12;13.63;;;11.00;;
31906;SDS011;18455;50.858;13.662;2023-08-07T04:12:13;14.77;;;11.95;;
31906;SDS011;18455;50.858;13.662;2023-08-07T04:17:14;17.15;;;10.75;;
31906;SDS011;18455;50.858;13.662;2023-08-07T04:22:15;14.95;;;10.25;;
31906;SDS011;18455;50.858;13.662;2023-08-07T04:27:15;12.15;;;9.90;;
31906;SDS011;18455;50.858;13.662;2023-08-07T04:32:15;13.75;;;9.90;;
31906;SDS011;18455;50.858;13.662;2023-08-07T04:37:16;12.90;;;9.77;;
31906;SDS011;18455;50.858;13.662;2023-08-07T04:42:16;11.85;;;10.45;;
31906;SDS011;18455;50.858;13.662;2023-08-07T04:47:16;11.90;;;9.57;;
31906;SDS011;18455;50.858;13.662;2023-08-07T04:52:17;10.98;;;9.32;;
31906;SDS011;18455;50.858;13.662;2023-08-07T04:57:17;12.18;;;8.27;;
31906;SDS011;18455;50.858;13.662;2023-08-07T05:02:18;10.75;;;8.93;;
31906;SDS011;18455;50.858;13.662;2023-08-07T05:07:19;14.65;;;8.38;;
31906;SDS011;18455;50.858;13.662;2023-08-07T05:12:19;12.32;;;9.30;;
31906;SDS011;18455;50.858;13.662;2023-08-07T05:17:19;10.18;;;8.02;;
31906;SDS011;18455;50.858;13.662;2023-08-07T05:22:20;11.93;;;7.32;;
31906;SDS011;18455;50.858;13.662;2023-08-07T05:27:20;11.73;;;7.18;;
31906;SDS011;18455;50.858;13.662;2023-08-07T05:32:21;7.63;;;6.82;;
31906;SDS011;18455;50.858;13.662;2023-08-07T05:37:21;10.13;;;6.32;;
31906;SDS011;18455;50.858;13.662;2023-08-07T05:42:22;7.85;;;5.90;;
31906;SDS011;18455;50.858;13.662;2023-08-07T05:47:22;9.23;;;5.13;;
31906;SDS011;18455;50.858;13.662;2023-08-07T05:52:22;7.70;;;4.03;;
31906;SDS011;18455;50.858;13.662;2023-08-07T05:57:24;3.75;;;3.40;;
31906;SDS011;18455;50.858;13.662;2023-08-07T06:02:24;4.20;;;2.78;;
31906;SDS011;18455;50.858;13.662;2023-08-07T06:07:25;5.45;;;3.67;;
31906;SDS011;18455;50.858;13.662;2023-08-07T06:12:25;4.28;;;3.88;;
31906;SDS011;18455;50.858;13.662;2023-08-07T06:17:27;5.88;;;3.70;;
31906;SDS011;18455;50.858;13.662;2023-08-07T06:22:27;4.05;;;3.22;;
31906;SDS011;18455;50.858;13.662;2023-08-07T06:27:27;3.85;;;3.13;;
31906;SDS011;18455;50.858;13.662;2023-08-07T06:32:28;4.30;;;2.72;;
31906;SDS011;18455;50.858;13.662;2023-08-07T06:37:28;9.02;;;3.58;;
31906;SDS011;18455;50.858;13.662;2023-08-07T06:42:29;3.88;;;2.60;;
31906;SDS011;18455;50.858;13.662;2023-08-07T06:47:29;2.78;;;2.58;;
31906;SDS011;18455;50.858;13.662;2023-08-07T06:52:30;3.42;;;3.13;;
31906;SDS011;18455;50.858;13.662;2023-08-07T06:57:30;3.72;;;3.10;;
31906;SDS011;18455;50.858;13.662;2023-08-07T07:02:30;3.20;;;2.90;;
31906;SDS011;18455;50.858;13.662;2023-08-07T07:07:32;3.97;;;2.58;;
31906;SDS011;18455;50.858;13.662;2023-08-07T07:12:32;2.63;;;2.35;;
31906;SDS011;18455;50.858;13.662;2023-08-07T07:17:32;7.10;;;3.20;;
31906;SDS011;18455;50.858;13.662;2023-08-07T07:22:33;4.32;;;2.97;;
31906;SDS011;18455;50.858;13.662;2023-08-07T07:27:33;3.42;;;3.00;;
31906;SDS011;18455;50.858;13.662;2023-08-07T07:32:34;4.72;;;2.70;;
31906;SDS011;18455;50.858;13.662;2023-08-07T07:37:34;3.58;;;2.55;;
31906;SDS011;18455;50.858;13.662;2023-08-07T07:42:34;6.85;;;3.03;;
31906;SDS011;18455;50.858;13.662;2023-08-07T07:47:35;5.40;;;2.95;;
31906;SDS011;18455;50.858;13.662;2023-08-07T07:52:35;4.45;;;2.67;;
31906;SDS011;18455;50.858;13.662;2023-08-07T07:57:36;2.60;;;2.33;;
31906;SDS011;18455;50.858;13.662;2023-08-07T08:02:36;4.05;;;2.20;;
31906;SDS011;18455;50.858;13.662;2023-08-07T08:07:37;3.33;;;1.90;;
31906;SDS011;18455;50.858;13.662;2023-08-07T08:12:39;2.78;;;1.70;;
31906;SDS011;18455;50.858;13.662;2023-08-07T08:17:39;1.83;;;1.73;;
31906;SDS011;18455;50.858;13.662;2023-08-07T08:22:39;2.63;;;1.52;;
31906;SDS011;18455;50.858;13.662;2023-08-07T08:27:40;1.58;;;1.48;;
31906;SDS011;18455;50.858;13.662;2023-08-07T08:32:40;3.65;;;2.28;;
31906;SDS011;18455;50.858;13.662;2023-08-07T08:37:42;3.53;;;2.00;;
31906;SDS011;18455;50.858;13.662;2023-08-07T08:42:43;2.17;;;1.98;;
31906;SDS011;18455;50.858;13.662;2023-08-07T08:47:47;2.65;;;1.80;;
31906;SDS011;18455;50.858;13.662;2023-08-07T08:52:49;2.08;;;1.90;;
31906;SDS011;18455;50.858;13.662;2023-08-07T08:57:51;2.83;;;2.15;;
31906;SDS011;18455;50.858;13.662;2023-08-07T09:02:52;2.45;;;1.60;;
31906;SDS011;18455;50.858;13.662;2023-08-07T09:07:52;2.08;;;1.58;;
31906;SDS011;18455;50.858;13.662;2023-08-07T09:12:53;2.20;;;2.00;;
31906;SDS011;18455;50.858;13.662;2023-08-07T09:17:57;3.83;;;1.90;;
31906;SDS011;18455;50.858;13.662;2023-08-07T09:22:59;12.05;;;2.15;;
31906;SDS011;18455;50.858;13.662;2023-08-07T09:28:03;2.67;;;2.17;;
31906;SDS011;18455;50.858;13.662;2023-08-07T09:33:04;2.80;;;1.60;;
31906;SDS011;18455;50.858;13.662;2023-08-07T09:38:04;4.43;;;1.48;;
31906;SDS011;18455;50.858;13.662;2023-08-07T09:43:05;2.05;;;1.50;;
31906;SDS011;18455;50.858;13.662;2023-08-07T09:48:07;2.60;;;1.20;;
31906;SDS011;18455;50.858;13.662;2023-08-07T09:53:07;1.85;;;1.15;;
31906;SDS011;18455;50.858;13.662;2023-08-07T09:58:11;2.88;;;1.17;;
31906;SDS011;18455;50.858;13.662;2023-08-07T10:03:13;1.40;;;1.30;;
31906;SDS011;18455;50.858;13.662;2023-08-07T10:08:14;1.55;;;1.20;;
31906;SDS011;18455;50.858;13.662;2023-08-07T10:13:14;3.60;;;1.35;;
31906;SDS011;18455;50.858;13.662;2023-08-07T10:18:14;2.47;;;1.23;;
31906;SDS011;18455;50.858;13.662;2023-08-07T10:23:15;4.07;;;1.25;;
31906;SDS011;18455;50.858;13.662;2023-08-07T10:28:17;2.70;;;1.60;;
31906;SDS011;18455;50.858;13.662;2023-08-07T10:33:19;1.98;;;1.48;;
31906;SDS011;18455;50.858;13.662;2023-08-07T10:38:22;2.10;;;1.40;;
31906;SDS011;18455;50.858;13.662;2023-08-07T10:43:23;4.93;;;1.45;;
31906;SDS011;18455;50.858;13.662;2023-08-07T10:48:24;4.72;;;1.30;;
31906;SDS011;18455;50.858;13.662;2023-08-07T10:53:36;2.05;;;1.10;;
31906;SDS011;18455;50.858;13.662;2023-08-07T10:58:47;1.35;;;1.20;;
31906;SDS011;18455;50.858;13.662;2023-08-07T11:03:51;1.58;;;1.25;;
31906;SDS011;18455;50.858;13.662;2023-08-07T11:08:53;1.58;;;1.38;;
31906;SDS011;18455;50.858;13.662;2023-08-07T11:13:54;1.50;;;1.40;;
31906;SDS011;18455;50.858;13.662;2023-08-07T11:18:55;1.38;;;1.27;;
31906;SDS011;18455;50.858;13.662;2023-08-07T11:23:55;1.33;;;1.23;;
31906;SDS011;18455;50.858;13.662;2023-08-07T11:28:56;2.45;;;1.10;;
31906;SDS011;18455;50.858;13.662;2023-08-07T11:33:57;0.88;;;0.82;;
31906;SDS011;18455;50.858;13.662;2023-08-07T11:38:58;1.58;;;1.10;;
31906;SDS011;18455;50.858;13.662;2023-08-07T11:43:58;0.70;;;0.70;;
31906;SDS011;18455;50.858;13.662;2023-08-07T11:48:59;1.13;;;1.02;;
31906;SDS011;18455;50.858;13.662;2023-08-07T11:54:00;5.47;;;1.42;;
31906;SDS011;18455;50.858;13.662;2023-08-07T11:59:01;0.98;;;0.98;;
31906;SDS011;18455;50.858;13.662;2023-08-07T12:09:05;0.80;;;0.80;;
31906;SDS011;18455;50.858;13.662;2023-08-07T12:14:16;0.80;;;0.80;;
31906;SDS011;18455;50.858;13.662;2023-08-07T12:19:17;0.70;;;0.70;;
31906;SDS011;18455;50.858;13.662;2023-08-07T12:24:19;0.80;;;0.80;;
31906;SDS011;18455;50.858;13.662;2023-08-07T12:29:20;2.85;;;1.85;;
31906;SDS011;18455;50.858;13.662;2023-08-07T12:34:20;0.65;;;0.65;;
31906;SDS011;18455;50.858;13.662;2023-08-07T12:39:21;0.80;;;0.80;;
31906;SDS011;18455;50.858;13.662;2023-08-07T12:44:21;0.77;;;0.70;;
31906;SDS011;18455;50.858;13.662;2023-08-07T12:49:22;0.68;;;0.68;;
31906;SDS011;18455;50.858;13.662;2023-08-07T12:54:23;1.48;;;0.85;;
31906;SDS011;18455;50.858;13.662;2023-08-07T12:59:24;1.13;;;0.90;;
31906;SDS011;18455;50.858;13.662;2023-08-07T13:04:24;0.68;;;0.68;;
31906;SDS011;18455;50.858;13.662;2023-08-07T13:09:25;2.10;;;1.27;;
31906;SDS011;18455;50.858;13.662;2023-08-07T13:14:25;0.82;;;0.70;;
31906;SDS011;18455;50.858;13.662;2023-08-07T13:19:26;0.80;;;0.60;;
31906;SDS011;18455;50.858;13.662;2023-08-07T13:24:26;0.63;;;0.57;;
31906;SDS011;18455;50.858;13.662;2023-08-07T13:29:27;1.00;;;0.77;;
31906;SDS011;18455;50.858;13.662;2023-08-07T13:34:29;0.65;;;0.65;;
31906;SDS011;18455;50.858;13.662;2023-08-07T13:39:30;3.10;;;0.90;;
31906;SDS011;18455;50.858;13.662;2023-08-07T13:44:30;1.05;;;0.70;;
31906;SDS011;18455;50.858;13.662;2023-08-07T13:49:30;1.55;;;0.80;;
31906;SDS011;18455;50.858;13.662;2023-08-07T13:54:31;1.00;;;0.90;;
31906;SDS011;18455;50.858;13.662;2023-08-07T13:59:31;0.50;;;0.50;;
31906;SDS011;18455;50.858;13.662;2023-08-07T14:04:31;0.70;;;0.65;;
31906;SDS011;18455;50.858;13.662;2023-08-07T14:09:32;0.45;;;0.45;;
31906;SDS011;18455;50.858;13.662;2023-08-07T14:14:32;0.82;;;0.60;;
31906;SDS011;18455;50.858;13.662;2023-08-07T14:19:32;0.85;;;0.70;;
31906;SDS011;18455;50.858;13.662;2023-08-07T14:24:33;0.73;;;0.70;;
31906;SDS011;18455;50.858;13.662;2023-08-07T14:29:33;1.20;;;0.90;;
31906;SDS011;18455;50.858;13.662;2023-08-07T14:34:34;2.70;;;1.00;;
31906;SDS011;18455;50.858;13.662;2023-08-07T14:39:34;0.93;;;0.93;;
31906;SDS011;18455;50.858;13.662;2023-08-07T14:44:34;0.70;;;0.70;;
31906;SDS011;18455;50.858;13.662;2023-08-07T14:49:37;1.15;;;0.90;;
31906;SDS011;18455;50.858;13.662;2023-08-07T14:54:37;3.03;;;1.00;;
31906;SDS011;18455;50.858;13.662;2023-08-07T14:59:38;2.15;;;0.85;;
31906;SDS011;18455;50.858;13.662;2023-08-07T15:04:38;1.25;;;1.00;;
31906;SDS011;18455;50.858;13.662;2023-08-07T15:09:38;0.98;;;0.90;;
31906;SDS011;18455;50.858;13.662;2023-08-07T15:14:39;2.72;;;1.05;;
31906;SDS011;18455;50.858;13.662;2023-08-07T15:19:39;1.33;;;0.77;;
31906;SDS011;18455;50.858;13.662;2023-08-07T15:24:39;0.80;;;0.77;;
31906;SDS011;18455;50.858;13.662;2023-08-07T15:29:40;0.80;;;0.80;;
31906;SDS011;18455;50.858;13.662;2023-08-07T15:34:46;0.90;;;0.80;;
31906;SDS011;18455;50.858;13.662;2023-08-07T15:39:48;1.00;;;0.90;;
31906;SDS011;18455;50.858;13.662;2023-08-07T15:44:48;7.07;;;3.58;;
31906;SDS011;18455;50.858;13.662;2023-08-07T15:49:48;1.20;;;0.80;;
31906;SDS011;18455;50.858;13.662;2023-08-07T15:54:49;1.63;;;0.80;;
31906;SDS011;18455;50.858;13.662;2023-08-07T15:59:49;1.10;;;0.77;;
31906;SDS011;18455;50.858;13.662;2023-08-07T16:04:49;0.73;;;0.73;;
31906;SDS011;18455;50.858;13.662;2023-08-07T16:09:50;1.33;;;0.93;;
31906;SDS011;18455;50.858;13.662;2023-08-07T16:14:50;2.05;;;0.80;;
31906;SDS011;18455;50.858;13.662;2023-08-07T16:19:51;2.22;;;0.85;;
31906;SDS011;18455;50.858;13.662;2023-08-07T16:24:51;1.05;;;0.98;;
31906;SDS011;18455;50.858;13.662;2023-08-07T16:29:51;1.48;;;0.80;;
31906;SDS011;18455;50.858;13.662;2023-08-07T16:34:52;1.88;;;0.80;;
31906;SDS011;18455;50.858;13.662;2023-08-07T16:39:52;4.43;;;2.10;;
31906;SDS011;18455;50.858;13.662;2023-08-07T16:44:53;5.13;;;3.08;;
31906;SDS011;18455;50.858;13.662;2023-08-07T16:49:53;1.67;;;1.02;;
31906;SDS011;18455;50.858;13.662;2023-08-07T16:54:53;2.72;;;1.38;;
31906;SDS011;18455;50.858;13.662;2023-08-07T16:59:54;2.30;;;1.27;;
31906;SDS011;18455;50.858;13.662;2023-08-07T17:04:54;1.42;;;1.13;;
31906;SDS011;18455;50.858;13.662;2023-08-07T17:09:55;0.93;;;0.93;;
31906;SDS011;18455;50.858;13.662;2023-08-07T17:14:55;3.70;;;1.25;;
31906;SDS011;18455;50.858;13.662;2023-08-07T17:19:55;1.77;;;1.17;;
31906;SDS011;18455;50.858;13.662;2023-08-07T17:24:57;2.03;;;0.98;;
31906;SDS011;18455;50.858;13.662;2023-08-07T17:29:58;2.15;;;1.40;;
31906;SDS011;18455;50.858;13.662;2023-08-07T17:34:58;2.97;;;1.65;;
31906;SDS011;18455;50.858;13.662;2023-08-07T17:40:00;6.43;;;1.90;;
31906;SDS011;18455;50.858;13.662;2023-08-07T17:45:01;6.30;;;1.92;;
31906;SDS011;18455;50.858;13.662;2023-08-07T17:50:02;5.60;;;1.80;;
31906;SDS011;18455;50.858;13.662;2023-08-07T17:55:03;6.38;;;2.17;;
31906;SDS011;18455;50.858;13.662;2023-08-07T18:00:04;4.97;;;2.00;;
31906;SDS011;18455;50.858;13.662;2023-08-07T18:05:07;8.73;;;2.55;;
31906;SDS011;18455;50.858;13.662;2023-08-07T18:10:09;11.13;;;2.60;;
31906;SDS011;18455;50.858;13.662;2023-08-07T18:15:10;4.63;;;2.17;;
31906;SDS011;18455;50.858;13.662;2023-08-07T18:20:11;9.15;;;2.53;;
31906;SDS011;18455;50.858;13.662;2023-08-07T18:25:11;8.20;;;2.72;;
31906;SDS011;18455;50.858;13.662;2023-08-07T18:30:12;6.55;;;2.70;;
31906;SDS011;18455;50.858;13.662;2023-08-07T18:35:12;4.95;;;2.58;;
31906;SDS011;18455;50.858;13.662;2023-08-07T18:40:14;8.90;;;2.78;;
31906;SDS011;18455;50.858;13.662;2023-08-07T18:45:14;7.93;;;2.55;;
31906;SDS011;18455;50.858;13.662;2023-08-07T18:50:15;9.65;;;3.67;;
31906;SDS011;18455;50.858;13.662;2023-08-07T18:55:15;7.70;;;3.03;;
31906;SDS011;18455;50.858;13.662;2023-08-07T19:00:15;13.60;;;3.13;;
31906;SDS011;18455;50.858;13.662;2023-08-07T19:05:16;9.23;;;3.03;;
31906;SDS011;18455;50.858;13.662;2023-08-07T19:10:17;8.93;;;3.15;;
31906;SDS011;18455;50.858;13.662;2023-08-07T19:15:17;9.73;;;2.78;;
31906;SDS011;18455;50.858;13.662;2023-08-07T19:20:17;10.32;;;3.15;;
31906;SDS011;18455;50.858;13.662;2023-08-07T19:25:18;9.90;;;3.05;;
31906;SDS011;18455;50.858;13.662;2023-08-07T19:30:18;7.28;;;3.30;;
31906;SDS011;18455;50.858;13.662;2023-08-07T19:35:19;7.50;;;2.72;;
31906;SDS011;18455;50.858;13.662;2023-08-07T19:40:19;15.48;;;3.55;;
31906;SDS011;18455;50.858;13.662;2023-08-07T19:45:24;6.97;;;2.90;;
31906;SDS011;18455;50.858;13.662;2023-08-07T19:50:24;6.40;;;2.80;;
31906;SDS011;18455;50.858;13.662;2023-08-07T19:55:26;7.35;;;2.72;;
31906;SDS011;18455;50.858;13.662;2023-08-07T20:00:26;8.05;;;2.83;;
31906;SDS011;18455;50.858;13.662;2023-08-07T20:05:26;9.52;;;2.55;;
31906;SDS011;18455;50.858;13.662;2023-08-07T20:10:27;11.05;;;3.50;;
31906;SDS011;18455;50.858;13.662;2023-08-07T20:15:28;7.20;;;2.70;;
31906;SDS011;18455;50.858;13.662;2023-08-07T20:20:28;7.10;;;3.05;;
31906;SDS011;18455;50.858;13.662;2023-08-07T20:25:28;5.90;;;2.58;;
31906;SDS011;18455;50.858;13.662;2023-08-07T20:30:29;6.45;;;3.10;;
31906;SDS011;18455;50.858;13.662;2023-08-07T20:35:29;5.80;;;2.70;;
31906;SDS011;18455;50.858;13.662;2023-08-07T20:40:30;8.40;;;3.13;;
31906;SDS011;18455;50.858;13.662;2023-08-07T20:45:31;6.32;;;2.85;;
31906;SDS011;18455;50.858;13.662;2023-08-07T20:50:31;6.57;;;2.50;;
31906;SDS011;18455;50.858;13.662;2023-08-07T20:55:32;8.73;;;2.72;;
31906;SDS011;18455;50.858;13.662;2023-08-07T21:00:32;6.35;;;2.60;;
31906;SDS011;18455;50.858;13.662;2023-08-07T21:05:33;5.10;;;2.80;;
31906;SDS011;18455;50.858;13.662;2023-08-07T21:10:33;5.53;;;2.58;;
31906;SDS011;18455;50.858;13.662;2023-08-07T21:15:33;8.13;;;2.85;;
31906;SDS011;18455;50.858;13.662;2023-08-07T21:20:34;6.03;;;2.75;;
31906;SDS011;18455;50.858;13.662;2023-08-07T21:25:34;10.18;;;3.40;;
31906;SDS011;18455;50.858;13.662;2023-08-07T21:30:35;10.35;;;3.05;;
31906;SDS011;18455;50.858;13.662;2023-08-07T21:35:35;6.80;;;3.08;;
31906;SDS011;18455;50.858;13.662;2023-08-07T21:40:35;15.68;;;3.35;;
31906;SDS011;18455;50.858;13.662;2023-08-07T21:45:38;9.25;;;3.25;;
31906;SDS011;18455;50.858;13.662;2023-08-07T21:50:39;9.15;;;2.78;;
31906;SDS011;18455;50.858;13.662;2023-08-07T21:55:39;9.65;;;2.65;;
31906;SDS011;18455;50.858;13.662;2023-08-07T22:00:39;8.77;;;2.83;;
31906;SDS011;18455;50.858;13.662;2023-08-07T22:05:40;6.57;;;2.53;;
31906;SDS011;18455;50.858;13.662;2023-08-07T22:10:40;6.15;;;2.83;;
31906;SDS011;18455;50.858;13.662;2023-08-07T22:15:41;5.85;;;2.88;;
31906;SDS011;18455;50.858;13.662;2023-08-07T22:20:41;6.10;;;2.55;;
31906;SDS011;18455;50.858;13.662;2023-08-07T22:25:42;3.90;;;2.47;;
31906;SDS011;18455;50.858;13.662;2023-08-07T22:30:42;11.20;;;2.95;;
31906;SDS011;18455;50.858;13.662;2023-08-07T22:35:43;7.80;;;2.45;;
31906;SDS011;18455;50.858;13.662;2023-08-07T22:40:43;5.38;;;2.60;;
31906;SDS011;18455;50.858;13.662;2023-08-07T22:45:47;10.02;;;3.17;;
31906;SDS011;18455;50.858;13.662;2023-08-07T22:50:48;7.93;;;2.90;;
31906;SDS011;18455;50.858;13.662;2023-08-07T22:55:49;5.47;;;3.00;;
31906;SDS011;18455;50.858;13.662;2023-08-07T23:00:50;10.05;;;3.50;;
31906;SDS011;18455;50.858;13.662;2023-08-07T23:05:50;6.60;;;2.80;;
31906;SDS011;18455;50.858;13.662;2023-08-07T23:10:50;7.13;;;2.67;;
31906;SDS011;18455;50.858;13.662;2023-08-07T23:15:52;8.00;;;3.50;;
31906;SDS011;18455;50.858;13.662;2023-08-07T23:20:52;12.15;;;2.70;;
31906;SDS011;18455;50.858;13.662;2023-08-07T23:25:53;3.58;;;2.70;;
31906;SDS011;18455;50.858;13.662;2023-08-07T23:30:53;7.88;;;2.85;;
31906;SDS011;18455;50.858;13.662;2023-08-07T23:35:53;9.20;;;3.08;;
31906;SDS011;18455;50.858;13.662;2023-08-07T23:40:54;9.70;;;2.30;;
31906;SDS011;18455;50.858;13.662;2023-08-07T23:45:54;6.97;;;2.90;;
31906;SDS011;18455;50.858;13.662;2023-08-07T23:50:54;4.68;;;2.30;;
31906;SDS011;18455;50.858;13.662;2023-08-07T23:55:55;7.70;;;2.72;;
